sensor_id;sensor_type;location;lat;lon;timestamp;pressure;altitude;pressure_sealevel;temperature;humidity
64340;BME280;63709;53.258;-8.814;2024-02-14T00:00:10;100242.41;;;14.68;100.00
64340;BME280;63709;53.258;-8.814;2024-02-14T00:02:45;100240.09;;;14.73;100.00
64340;BME280;63709;53.258;-8.814;2024-02-14T00:05:10;100238.53;;;14.71;100.00
64340;BME280;63709;53.258;-8.814;2024-02-14T00:07:37;100241.78;;;14.74;100.00
64340;BME280;63709;53.258;-8.814;2024-02-14T00:10:02;100242.78;;;14.73;100.00
64340;BME280;63709;53.258;-8.814;2024-02-14T00:12:28;100245.22;;;14.85;100.00
64340;BME280;63709;53.258;-8.814;2024-02-14T00:14:53;100246.34;;;14.82;100.00
64340;BME280;63709;53.258;-8.814;2024-02-14T00:17:18;100250.28;;;14.88;100.00
64340;BME280;63709;53.258;-8.814;2024-02-14T00:19:43;100249.63;;;14.94;100.00
64340;BME280;63709;53.258;-8.814;2024-02-14T00:22:09;100251.34;;;14.95;100.00
64340;BME280;63709;53.258;-8.814;2024-02-14T00:24:34;100253.00;;;14.96;100.00
64340;BME280;63709;53.258;-8.814;2024-02-14T00:27:01;100253.69;;;14.98;100.00
64340;BME280;63709;53.258;-8.814;2024-02-14T00:29:28;100251.69;;;15.00;100.00
64340;BME280;63709;53.258;-8.814;2024-02-14T00:31:53;100254.91;;;15.04;100.00
64340;BME280;63709;53.258;-8.814;2024-02-14T00:34:18;100250.91;;;15.08;100.00
64340;BME280;63709;53.258;-8.814;2024-02-14T00:36:43;100248.38;;;15.06;100.00
64340;BME280;63709;53.258;-8.814;2024-02-14T00:39:09;100247.53;;;15.06;100.00
64340;BME280;63709;53.258;-8.814;2024-02-14T00:41:34;100244.50;;;15.09;100.00
64340;BME280;63709;53.258;-8.814;2024-02-14T00:44:01;100247.41;;;15.15;100.00
64340;BME280;63709;53.258;-8.814;2024-02-14T00:46:26;100241.03;;;15.16;100.00
64340;BME280;63709;53.258;-8.814;2024-02-14T00:48:53;100227.81;;;15.23;100.00
64340;BME280;63709;53.258;-8.814;2024-02-14T00:51:19;100225.81;;;15.25;100.00
64340;BME280;63709;53.258;-8.814;2024-02-14T00:53:45;100230.34;;;15.24;100.00
64340;BME280;63709;53.258;-8.814;2024-02-14T00:56:10;100229.69;;;15.31;100.00
64340;BME280;63709;53.258;-8.814;2024-02-14T00:58:35;100239.41;;;15.23;100.00
64340;BME280;63709;53.258;-8.814;2024-02-14T01:01:01;100232.56;;;15.29;100.00
64340;BME280;63709;53.258;-8.814;2024-02-14T01:03:26;100225.34;;;15.38;100.00
64340;BME280;63709;53.258;-8.814;2024-02-14T01:05:51;100233.75;;;15.35;100.00
64340;BME280;63709;53.258;-8.814;2024-02-14T01:08:17;100245.19;;;15.37;100.00
64340;BME280;63709;53.258;-8.814;2024-02-14T01:10:42;100238.13;;;15.36;100.00
64340;BME280;63709;53.258;-8.814;2024-02-14T01:13:07;100234.09;;;15.32;100.00
64340;BME280;63709;53.258;-8.814;2024-02-14T01:15:33;100235.28;;;15.37;100.00
64340;BME280;63709;53.258;-8.814;2024-02-14T01:18:01;100243.03;;;15.40;100.00
64340;BME280;63709;53.258;-8.814;2024-02-14T01:20:26;100246.13;;;15.28;100.00
64340;BME280;63709;53.258;-8.814;2024-02-14T01:22:51;100240.97;;;15.34;100.00
64340;BME280;63709;53.258;-8.814;2024-02-14T01:25:16;100246.13;;;15.28;100.00
64340;BME280;63709;53.258;-8.814;2024-02-14T01:27:42;100242.81;;;15.34;100.00
64340;BME280;63709;53.258;-8.814;2024-02-14T01:30:08;100242.69;;;15.35;100.00
64340;BME280;63709;53.258;-8.814;2024-02-14T01:32:34;100244.78;;;15.23;100.00
64340;BME280;63709;53.258;-8.814;2024-02-14T01:34:59;100253.56;;;15.34;100.00
64340;BME280;63709;53.258;-8.814;2024-02-14T01:37:26;100248.72;;;15.37;100.00
64340;BME280;63709;53.258;-8.814;2024-02-14T01:39:51;100247.16;;;15.27;100.00
64340;BME280;63709;53.258;-8.814;2024-02-14T01:42:16;100238.06;;;15.28;100.00
64340;BME280;63709;53.258;-8.814;2024-02-14T01:44:41;100254.06;;;15.29;100.00
64340;BME280;63709;53.258;-8.814;2024-02-14T01:47:08;100254.91;;;15.30;100.00
64340;BME280;63709;53.258;-8.814;2024-02-14T01:49:34;100243.97;;;15.31;100.00
64340;BME280;63709;53.258;-8.814;2024-02-14T01:52:01;100250.31;;;15.22;100.00
64340;BME280;63709;53.258;-8.814;2024-02-14T01:54:27;100253.19;;;15.20;100.00
64340;BME280;63709;53.258;-8.814;2024-02-14T01:56:53;100252.91;;;15.32;100.00
64340;BME280;63709;53.258;-8.814;2024-02-14T01:59:19;100249.47;;;15.21;100.00
64340;BME280;63709;53.258;-8.814;2024-02-14T02:01:44;100237.56;;;15.24;100.00
64340;BME280;63709;53.258;-8.814;2024-02-14T02:04:09;100247.66;;;15.30;100.00
64340;BME280;63709;53.258;-8.814;2024-02-14T02:06:35;100251.28;;;15.39;100.00
64340;BME280;63709;53.258;-8.814;2024-02-14T02:09:01;100249.34;;;15.31;100.00
64340;BME280;63709;53.258;-8.814;2024-02-14T02:11:26;100242.09;;;15.23;100.00
64340;BME280;63709;53.258;-8.814;2024-02-14T02:13:52;100252.22;;;15.30;100.00
64340;BME280;63709;53.258;-8.814;2024-02-14T02:16:17;100245.78;;;15.22;100.00
64340;BME280;63709;53.258;-8.814;2024-02-14T02:18:44;100245.28;;;15.27;100.00
64340;BME280;63709;53.258;-8.814;2024-02-14T02:21:09;100244.94;;;15.22;100.00
64340;BME280;63709;53.258;-8.814;2024-02-14T02:23:34;100240.38;;;15.14;100.00
64340;BME280;63709;53.258;-8.814;2024-02-14T02:26:00;100238.72;;;15.21;100.00
64340;BME280;63709;53.258;-8.814;2024-02-14T02:28:25;100235.63;;;15.08;100.00
64340;BME280;63709;53.258;-8.814;2024-02-14T02:30:51;100242.69;;;15.09;100.00
64340;BME280;63709;53.258;-8.814;2024-02-14T02:33:17;100248.56;;;15.13;100.00
64340;BME280;63709;53.258;-8.814;2024-02-14T02:35:43;100242.09;;;15.23;100.00
64340;BME280;63709;53.258;-8.814;2024-02-14T02:38:10;100242.16;;;15.32;100.00
64340;BME280;63709;53.258;-8.814;2024-02-14T02:40:35;100231.53;;;15.30;100.00
64340;BME280;63709;53.258;-8.814;2024-02-14T02:43:01;100233.75;;;15.35;100.00
64340;BME280;63709;53.258;-8.814;2024-02-14T02:45:26;100236.78;;;15.32;100.00
64340;BME280;63709;53.258;-8.814;2024-02-14T02:47:51;100242.44;;;15.20;100.00
64340;BME280;63709;53.258;-8.814;2024-02-14T02:50:17;100232.75;;;15.36;100.00
64340;BME280;63709;53.258;-8.814;2024-02-14T02:52:42;100234.59;;;15.35;100.00
64340;BME280;63709;53.258;-8.814;2024-02-14T02:55:08;100229.28;;;15.17;100.00
64340;BME280;63709;53.258;-8.814;2024-02-14T02:57:33;100222.47;;;15.31;100.00
64340;BME280;63709;53.258;-8.814;2024-02-14T03:00:01;100229.91;;;15.37;100.00
64340;BME280;63709;53.258;-8.814;2024-02-14T03:02:27;100222.00;;;15.36;100.00
64340;BME280;63709;53.258;-8.814;2024-02-14T03:04:52;100217.97;;;15.40;100.00
64340;BME280;63709;53.258;-8.814;2024-02-14T03:07:18;100225.66;;;15.35;100.00
64340;BME280;63709;53.258;-8.814;2024-02-14T03:09:44;100225.50;;;15.28;100.00
64340;BME280;63709;53.258;-8.814;2024-02-14T03:12:09;100230.06;;;15.36;100.00
64340;BME280;63709;53.258;-8.814;2024-02-14T03:14:35;100236.88;;;15.22;100.00
64340;BME280;63709;53.258;-8.814;2024-02-14T03:17:04;100235.47;;;15.10;100.00
64340;BME280;63709;53.258;-8.814;2024-02-14T03:19:29;100224.44;;;15.21;100.00
64340;BME280;63709;53.258;-8.814;2024-02-14T03:21:55;100228.28;;;15.18;100.00
64340;BME280;63709;53.258;-8.814;2024-02-14T03:24:20;100225.69;;;15.09;100.00
64340;BME280;63709;53.258;-8.814;2024-02-14T03:26:46;100224.13;;;15.24;100.00
64340;BME280;63709;53.258;-8.814;2024-02-14T03:29:11;100213.16;;;15.17;100.00
64340;BME280;63709;53.258;-8.814;2024-02-14T03:31:37;100211.47;;;15.16;100.00
64340;BME280;63709;53.258;-8.814;2024-02-14T03:34:02;100212.34;;;15.17;100.00
64340;BME280;63709;53.258;-8.814;2024-02-14T03:36:27;100203.22;;;15.10;100.00
64340;BME280;63709;53.258;-8.814;2024-02-14T03:38:59;100219.38;;;15.18;100.00
64340;BME280;63709;53.258;-8.814;2024-02-14T03:41:29;100221.53;;;15.14;100.00
64340;BME280;63709;53.258;-8.814;2024-02-14T03:43:54;100195.59;;;15.05;100.00
64340;BME280;63709;53.258;-8.814;2024-02-14T03:46:23;100214.81;;;15.10;100.00
64340;BME280;63709;53.258;-8.814;2024-02-14T03:48:48;100220.31;;;15.09;100.00
64340;BME280;63709;53.258;-8.814;2024-02-14T03:51:13;100223.50;;;15.04;100.00
64340;BME280;63709;53.258;-8.814;2024-02-14T03:53:39;100223.09;;;14.91;100.00
64340;BME280;63709;53.258;-8.814;2024-02-14T03:56:04;100230.19;;;15.00;100.00
64340;BME280;63709;53.258;-8.814;2024-02-14T03:58:30;100231.03;;;15.00;100.00
64340;BME280;63709;53.258;-8.814;2024-02-14T04:00:55;100231.03;;;15.00;100.00
64340;BME280;63709;53.258;-8.814;2024-02-14T04:03:21;100229.19;;;15.01;100.00
64340;BME280;63709;53.258;-8.814;2024-02-14T04:05:46;100225.88;;;15.07;100.00
64340;BME280;63709;53.258;-8.814;2024-02-14T04:08:12;100226.50;;;15.01;100.00
64340;BME280;63709;53.258;-8.814;2024-02-14T04:10:38;100217.38;;;14.94;100.00
64340;BME280;63709;53.258;-8.814;2024-02-14T04:13:04;100219.47;;;15.08;100.00
64340;BME280;63709;53.258;-8.814;2024-02-14T04:15:30;100216.75;;;15.00;100.00
64340;BME280;63709;53.258;-8.814;2024-02-14T04:17:55;100209.22;;;15.04;100.00
64340;BME280;63709;53.258;-8.814;2024-02-14T04:20:20;100218.66;;;15.08;100.00
64340;BME280;63709;53.258;-8.814;2024-02-14T04:22:45;100217.34;;;15.20;100.00
64340;BME280;63709;53.258;-8.814;2024-02-14T04:25:11;100205.06;;;15.09;100.00
64340;BME280;63709;53.258;-8.814;2024-02-14T04:27:37;100208.09;;;15.14;100.00
64340;BME280;63709;53.258;-8.814;2024-02-14T04:30:03;100214.81;;;15.10;100.00
64340;BME280;63709;53.258;-8.814;2024-02-14T04:32:29;100210.09;;;15.12;100.00
64340;BME280;63709;53.258;-8.814;2024-02-14T04:34:54;100216.97;;;15.07;100.00
64340;BME280;63709;53.258;-8.814;2024-02-14T04:37:19;100221.66;;;15.05;100.00
64340;BME280;63709;53.258;-8.814;2024-02-14T04:39:45;100223.81;;;15.01;100.00
64340;BME280;63709;53.258;-8.814;2024-02-14T04:42:10;100217.63;;;15.09;100.00
64340;BME280;63709;53.258;-8.814;2024-02-14T04:44:35;100223.50;;;15.04;100.00
64340;BME280;63709;53.258;-8.814;2024-02-14T04:47:01;100223.50;;;15.04;100.00
64340;BME280;63709;53.258;-8.814;2024-02-14T04:49:26;100228.03;;;15.04;100.00
64340;BME280;63709;53.258;-8.814;2024-02-14T04:51:54;100227.16;;;14.95;100.00
64340;BME280;63709;53.258;-8.814;2024-02-14T04:54:19;100231.19;;;14.99;100.00
64340;BME280;63709;53.258;-8.814;2024-02-14T04:56:44;100224.06;;;14.90;100.00
64340;BME280;63709;53.258;-8.814;2024-02-14T04:59:10;100224.34;;;15.05;100.00
64340;BME280;63709;53.258;-8.814;2024-02-14T05:01:36;100219.78;;;15.05;100.00
64340;BME280;63709;53.258;-8.814;2024-02-14T05:04:01;100220.19;;;15.10;100.00
64340;BME280;63709;53.258;-8.814;2024-02-14T05:06:26;100223.88;;;15.09;100.00
64340;BME280;63709;53.258;-8.814;2024-02-14T05:08:52;100227.72;;;15.07;100.00
64340;BME280;63709;53.258;-8.814;2024-02-14T05:11:18;100220.66;;;15.06;100.00
64340;BME280;63709;53.258;-8.814;2024-02-14T05:13:43;100228.59;;;15.15;100.00
64340;BME280;63709;53.258;-8.814;2024-02-14T05:16:09;100220.22;;;15.18;100.00
64340;BME280;63709;53.258;-8.814;2024-02-14T05:18:36;100212.19;;;15.27;100.00
64340;BME280;63709;53.258;-8.814;2024-02-14T05:21:04;100217.09;;;15.31;100.00
64340;BME280;63709;53.258;-8.814;2024-02-14T05:23:29;100211.91;;;15.38;100.00
64340;BME280;63709;53.258;-8.814;2024-02-14T05:25:55;100213.28;;;15.42;100.00
64340;BME280;63709;53.258;-8.814;2024-02-14T05:28:21;100201.53;;;15.43;100.00
64340;BME280;63709;53.258;-8.814;2024-02-14T05:30:46;100207.88;;;15.42;100.00
64340;BME280;63709;53.258;-8.814;2024-02-14T05:33:11;100208.59;;;15.44;100.00
64340;BME280;63709;53.258;-8.814;2024-02-14T05:35:36;100201.69;;;15.41;100.00
64340;BME280;63709;53.258;-8.814;2024-02-14T05:38:02;100200.88;;;15.49;100.00
64340;BME280;63709;53.258;-8.814;2024-02-14T05:40:29;100208.94;;;15.49;100.00
64340;BME280;63709;53.258;-8.814;2024-02-14T05:42:55;100210.28;;;15.53;100.00
64340;BME280;63709;53.258;-8.814;2024-02-14T05:45:21;100213.31;;;15.50;100.00
64340;BME280;63709;53.258;-8.814;2024-02-14T05:47:46;100209.25;;;15.46;100.00
64340;BME280;63709;53.258;-8.814;2024-02-14T05:50:12;100213.78;;;15.45;100.00
64340;BME280;63709;53.258;-8.814;2024-02-14T05:52:38;100205.25;;;15.50;100.00
64340;BME280;63709;53.258;-8.814;2024-02-14T05:55:03;100218.03;;;15.56;100.00
64340;BME280;63709;53.258;-8.814;2024-02-14T05:57:30;100209.97;;;15.56;100.00
64340;BME280;63709;53.258;-8.814;2024-02-14T05:59:55;100210.97;;;15.55;100.00
64340;BME280;63709;53.258;-8.814;2024-02-14T06:02:20;100208.13;;;15.57;100.00
64340;BME280;63709;53.258;-8.814;2024-02-14T06:04:46;100205.44;;;15.57;100.00
64340;BME280;63709;53.258;-8.814;2024-02-14T06:07:11;100217.19;;;15.56;100.00
64340;BME280;63709;53.258;-8.814;2024-02-14T06:09:37;100212.34;;;15.59;100.00
64340;BME280;63709;53.258;-8.814;2024-02-14T06:12:03;100214.84;;;15.61;100.00
64340;BME280;63709;53.258;-8.814;2024-02-14T06:14:28;100221.09;;;15.61;100.00
64340;BME280;63709;53.258;-8.814;2024-02-14T06:16:55;100227.78;;;15.57;100.00
64340;BME280;63709;53.258;-8.814;2024-02-14T06:19:21;100216.34;;;15.47;100.00
64340;BME280;63709;53.258;-8.814;2024-02-14T06:21:47;100217.72;;;15.59;100.00
64340;BME280;63709;53.258;-8.814;2024-02-14T06:24:12;100218.06;;;15.64;100.00
64340;BME280;63709;53.258;-8.814;2024-02-14T06:26:38;100224.47;;;15.63;100.00
64340;BME280;63709;53.258;-8.814;2024-02-14T06:29:03;100215.38;;;15.64;100.00
64340;BME280;63709;53.258;-8.814;2024-02-14T06:31:29;100221.09;;;15.61;100.00
64340;BME280;63709;53.258;-8.814;2024-02-14T06:33:54;100215.09;;;15.67;100.00
64340;BME280;63709;53.258;-8.814;2024-02-14T06:36:19;100224.50;;;15.71;100.00
64340;BME280;63709;53.258;-8.814;2024-02-14T06:38:45;100226.03;;;15.74;100.00
64340;BME280;63709;53.258;-8.814;2024-02-14T06:41:11;100231.25;;;15.76;100.00
64340;BME280;63709;53.258;-8.814;2024-02-14T06:43:36;100225.88;;;15.76;100.00
64340;BME280;63709;53.258;-8.814;2024-02-14T06:46:04;100213.63;;;15.81;100.00
64340;BME280;63709;53.258;-8.814;2024-02-14T06:48:29;100219.50;;;15.77;100.00
64340;BME280;63709;53.258;-8.814;2024-02-14T06:50:55;100226.91;;;15.83;100.00
64340;BME280;63709;53.258;-8.814;2024-02-14T06:53:20;100218.00;;;15.82;100.00
64340;BME280;63709;53.258;-8.814;2024-02-14T06:55:45;100221.38;;;15.92;100.00
64340;BME280;63709;53.258;-8.814;2024-02-14T06:58:11;100228.44;;;15.93;100.00
64340;BME280;63709;53.258;-8.814;2024-02-14T07:00:36;100229.47;;;15.92;100.00
64340;BME280;63709;53.258;-8.814;2024-02-14T07:03:01;100230.44;;;15.83;100.00
64340;BME280;63709;53.258;-8.814;2024-02-14T07:05:27;100223.06;;;15.85;100.00
64340;BME280;63709;53.258;-8.814;2024-02-14T07:07:54;100220.22;;;15.95;100.00
64340;BME280;63709;53.258;-8.814;2024-02-14T07:10:19;100223.06;;;15.85;100.00
64340;BME280;63709;53.258;-8.814;2024-02-14T07:12:45;100223.06;;;15.93;100.00
64340;BME280;63709;53.258;-8.814;2024-02-14T07:15:10;100224.78;;;15.94;100.00
64340;BME280;63709;53.258;-8.814;2024-02-14T07:17:36;100228.97;;;15.97;100.00
64340;BME280;63709;53.258;-8.814;2024-02-14T07:20:02;100242.22;;;15.90;100.00
64340;BME280;63709;53.258;-8.814;2024-02-14T07:22:28;100234.53;;;15.95;100.00
64340;BME280;63709;53.258;-8.814;2024-02-14T07:24:55;100241.25;;;15.91;100.00
64340;BME280;63709;53.258;-8.814;2024-02-14T07:27:20;100239.72;;;15.97;100.00
64340;BME280;63709;53.258;-8.814;2024-02-14T07:29:46;100248.47;;;15.91;100.00
64340;BME280;63709;53.258;-8.814;2024-02-14T07:32:11;100249.00;;;15.94;100.00
64340;BME280;63709;53.258;-8.814;2024-02-14T07:34:39;100247.31;;;16.02;100.00
64340;BME280;63709;53.258;-8.814;2024-02-14T07:37:05;100248.50;;;15.99;100.00
64340;BME280;63709;53.258;-8.814;2024-02-14T07:39:30;100246.66;;;16.00;100.00
64340;BME280;63709;53.258;-8.814;2024-02-14T07:41:56;100256.56;;;15.99;100.00
64340;BME280;63709;53.258;-8.814;2024-02-14T07:44:22;100259.91;;;15.93;100.00
64340;BME280;63709;53.258;-8.814;2024-02-14T07:46:48;100261.97;;;15.99;100.00
64340;BME280;63709;53.258;-8.814;2024-02-14T07:49:14;100269.66;;;15.94;100.00
64340;BME280;63709;53.258;-8.814;2024-02-14T07:51:39;100272.84;;;15.89;100.00
64340;BME280;63709;53.258;-8.814;2024-02-14T07:54:04;100270.03;;;15.99;100.00
64340;BME280;63709;53.258;-8.814;2024-02-14T07:56:30;100269.34;;;15.97;100.00
64340;BME280;63709;53.258;-8.814;2024-02-14T07:58:56;100264.13;;;15.95;100.00
64340;BME280;63709;53.258;-8.814;2024-02-14T08:01:21;100268.00;;;16.01;100.00
64340;BME280;63709;53.258;-8.814;2024-02-14T08:03:47;100265.16;;;15.94;100.00
64340;BME280;63709;53.258;-8.814;2024-02-14T08:06:13;100264.63;;;15.91;100.00
64340;BME280;63709;53.258;-8.814;2024-02-14T08:08:38;100269.63;;;15.86;100.00
64340;BME280;63709;53.258;-8.814;2024-02-14T08:11:03;100276.34;;;15.82;100.00
64340;BME280;63709;53.258;-8.814;2024-02-14T08:13:29;100282.56;;;15.82;100.00
64340;BME280;63709;53.258;-8.814;2024-02-14T08:15:54;100286.91;;;15.75;100.00
64340;BME280;63709;53.258;-8.814;2024-02-14T08:18:19;100286.47;;;15.88;100.00
64340;BME280;63709;53.258;-8.814;2024-02-14T08:20:45;100290.50;;;15.84;100.00
64340;BME280;63709;53.258;-8.814;2024-02-14T08:23:10;100283.81;;;15.96;100.00
64340;BME280;63709;53.258;-8.814;2024-02-14T08:25:35;100291.06;;;15.95;100.00
64340;BME280;63709;53.258;-8.814;2024-02-14T08:28:01;100292.91;;;15.95;100.00
64340;BME280;63709;53.258;-8.814;2024-02-14T08:30:26;100296.22;;;15.81;100.00
64340;BME280;63709;53.258;-8.814;2024-02-14T08:32:52;100297.94;;;15.98;100.00
64340;BME280;63709;53.258;-8.814;2024-02-14T08:35:17;100301.97;;;15.94;100.00
64340;BME280;63709;53.258;-8.814;2024-02-14T08:37:43;100308.69;;;15.90;100.00
64340;BME280;63709;53.258;-8.814;2024-02-14T08:40:09;100316.13;;;15.96;100.00
64340;BME280;63709;53.258;-8.814;2024-02-14T08:42:36;100314.75;;;15.92;100.00
64340;BME280;63709;53.258;-8.814;2024-02-14T08:45:02;100317.94;;;15.87;100.00
64340;BME280;63709;53.258;-8.814;2024-02-14T08:47:28;100326.03;;;15.95;100.00
64340;BME280;63709;53.258;-8.814;2024-02-14T08:49:54;100331.44;;;15.95;100.00
64340;BME280;63709;53.258;-8.814;2024-02-14T08:52:19;100336.44;;;15.90;100.00
64340;BME280;63709;53.258;-8.814;2024-02-14T08:54:46;100326.53;;;15.91;100.00
64340;BME280;63709;53.258;-8.814;2024-02-14T08:57:11;100324.84;;;15.98;100.00
64340;BME280;63709;53.258;-8.814;2024-02-14T08:59:36;100328.19;;;15.84;100.00
64340;BME280;63709;53.258;-8.814;2024-02-14T09:02:02;100334.25;;;15.94;100.00
64340;BME280;63709;53.258;-8.814;2024-02-14T09:04:27;100332.59;;;15.93;100.00
64340;BME280;63709;53.258;-8.814;2024-02-14T09:06:53;100328.84;;;15.86;100.00
64340;BME280;63709;53.258;-8.814;2024-02-14T09:09:18;100333.50;;;15.76;100.00
64340;BME280;63709;53.258;-8.814;2024-02-14T09:11:44;100332.81;;;15.65;100.00
64340;BME280;63709;53.258;-8.814;2024-02-14T09:14:11;100342.00;;;15.63;100.00
64340;BME280;63709;53.258;-8.814;2024-02-14T09:16:36;100335.38;;;15.57;100.00
64340;BME280;63709;53.258;-8.814;2024-02-14T09:19:02;100336.78;;;15.61;100.00
64340;BME280;63709;53.258;-8.814;2024-02-14T09:21:28;100332.34;;;15.26;100.00
64340;BME280;63709;53.258;-8.814;2024-02-14T09:23:53;100342.53;;;15.40;100.00
64340;BME280;63709;53.258;-8.814;2024-02-14T09:26:20;100337.94;;;15.33;100.00
64340;BME280;63709;53.258;-8.814;2024-02-14T09:28:45;100345.56;;;15.45;100.00
64340;BME280;63709;53.258;-8.814;2024-02-14T09:31:10;100349.91;;;15.38;100.00
64340;BME280;63709;53.258;-8.814;2024-02-14T09:33:37;100357.13;;;15.38;100.00
64340;BME280;63709;53.258;-8.814;2024-02-14T09:36:03;100353.91;;;15.34;100.00
64340;BME280;63709;53.258;-8.814;2024-02-14T09:38:29;100351.53;;;15.31;100.00
64340;BME280;63709;53.258;-8.814;2024-02-14T09:40:55;100348.28;;;15.45;100.00
64340;BME280;63709;53.258;-8.814;2024-02-14T09:43:36;100352.75;;;15.37;100.00
64340;BME280;63709;53.258;-8.814;2024-02-14T09:46:03;100353.06;;;15.34;100.00
64340;BME280;63709;53.258;-8.814;2024-02-14T09:48:29;100353.53;;;15.29;100.00
64340;BME280;63709;53.258;-8.814;2024-02-14T09:50:55;100370.19;;;15.51;100.00
64340;BME280;63709;53.258;-8.814;2024-02-14T09:53:21;100356.47;;;15.62;100.00
64340;BME280;63709;53.258;-8.814;2024-02-14T09:55:47;100367.56;;;15.41;100.00
64340;BME280;63709;53.258;-8.814;2024-02-14T09:58:13;100374.72;;;15.50;100.00
64340;BME280;63709;53.258;-8.814;2024-02-14T10:00:39;100365.19;;;15.38;100.00
64340;BME280;63709;53.258;-8.814;2024-02-14T10:03:07;100352.19;;;15.51;100.00
64340;BME280;63709;53.258;-8.814;2024-02-14T10:05:33;100364.31;;;15.55;100.00
64340;BME280;63709;53.258;-8.814;2024-02-14T10:07:58;100367.22;;;15.62;100.00
64340;BME280;63709;53.258;-8.814;2024-02-14T10:10:24;100363.75;;;15.69;100.00
64340;BME280;63709;53.258;-8.814;2024-02-14T10:12:49;100374.09;;;15.64;100.00
64340;BME280;63709;53.258;-8.814;2024-02-14T10:15:15;100374.09;;;15.38;100.00
64340;BME280;63709;53.258;-8.814;2024-02-14T10:17:40;100374.34;;;15.71;100.00
64340;BME280;63709;53.258;-8.814;2024-02-14T10:20:08;100367.28;;;15.70;100.00
64340;BME280;63709;53.258;-8.814;2024-02-14T10:22:35;100380.78;;;15.78;100.00
64340;BME280;63709;53.258;-8.814;2024-02-14T10:25:03;100380.31;;;15.83;100.00
64340;BME280;63709;53.258;-8.814;2024-02-14T10:27:30;100386.03;;;15.80;100.00
64340;BME280;63709;53.258;-8.814;2024-02-14T10:29:56;100390.25;;;15.90;100.00
64340;BME280;63709;53.258;-8.814;2024-02-14T10:32:22;100386.06;;;15.88;100.00
64340;BME280;63709;53.258;-8.814;2024-02-14T10:34:49;100387.50;;;15.74;100.00
64340;BME280;63709;53.258;-8.814;2024-02-14T10:37:14;100388.13;;;15.68;100.00
64340;BME280;63709;53.258;-8.814;2024-02-14T10:39:41;100392.34;;;15.70;100.00
64340;BME280;63709;53.258;-8.814;2024-02-14T10:42:07;100393.41;;;15.60;100.00
64340;BME280;63709;53.258;-8.814;2024-02-14T10:44:32;100401.97;;;15.73;100.00
64340;BME280;63709;53.258;-8.814;2024-02-14T10:46:59;100408.53;;;15.79;100.00
64340;BME280;63709;53.258;-8.814;2024-02-14T10:49:25;100411.22;;;15.79;100.00
64340;BME280;63709;53.258;-8.814;2024-02-14T10:51:53;100409.88;;;15.75;100.00
64340;BME280;63709;53.258;-8.814;2024-02-14T10:54:19;100415.09;;;15.76;100.00
64340;BME280;63709;53.258;-8.814;2024-02-14T10:56:45;100420.75;;;15.91;100.00
64340;BME280;63709;53.258;-8.814;2024-02-14T10:59:15;100427.63;;;15.93;100.00
64340;BME280;63709;53.258;-8.814;2024-02-14T11:01:41;100435.28;;;16.06;100.00
64340;BME280;63709;53.258;-8.814;2024-02-14T11:04:07;100438.06;;;16.23;100.00
64340;BME280;63709;53.258;-8.814;2024-02-14T11:06:43;100440.44;;;16.26;100.00
64340;BME280;63709;53.258;-8.814;2024-02-14T11:09:11;100433.78;;;16.12;100.00
64340;BME280;63709;53.258;-8.814;2024-02-14T11:11:37;100431.13;;;16.20;100.00
64340;BME280;63709;53.258;-8.814;2024-02-14T11:14:03;100435.31;;;16.14;100.00
64340;BME280;63709;53.258;-8.814;2024-02-14T11:16:30;100425.94;;;16.27;100.00
64340;BME280;63709;53.258;-8.814;2024-02-14T11:19:09;100422.31;;;16.44;100.00
64340;BME280;63709;53.258;-8.814;2024-02-14T11:21:41;100419.13;;;16.49;100.00
64340;BME280;63709;53.258;-8.814;2024-02-14T11:24:11;100424.59;;;16.23;100.00
64340;BME280;63709;53.258;-8.814;2024-02-14T11:26:40;100421.00;;;16.48;100.00
64340;BME280;63709;53.258;-8.814;2024-02-14T11:29:13;100428.78;;;16.59;100.00
64340;BME280;63709;53.258;-8.814;2024-02-14T11:31:38;100428.28;;;16.64;100.00
64340;BME280;63709;53.258;-8.814;2024-02-14T11:34:05;100442.16;;;16.77;100.00
64340;BME280;63709;53.258;-8.814;2024-02-14T11:36:31;100452.28;;;16.83;100.00
64340;BME280;63709;53.258;-8.814;2024-02-14T11:38:57;100462.56;;;16.80;100.00
64340;BME280;63709;53.258;-8.814;2024-02-14T11:41:22;100464.63;;;16.60;100.00
64340;BME280;63709;53.258;-8.814;2024-02-14T11:43:51;100459.34;;;16.76;100.00
64340;BME280;63709;53.258;-8.814;2024-02-14T11:46:16;100464.84;;;16.66;100.00
64340;BME280;63709;53.258;-8.814;2024-02-14T11:48:42;100475.94;;;16.63;100.00
64340;BME280;63709;53.258;-8.814;2024-02-14T11:51:10;100482.63;;;16.51;100.00
64340;BME280;63709;53.258;-8.814;2024-02-14T11:53:36;100478.94;;;16.52;100.00
64340;BME280;63709;53.258;-8.814;2024-02-14T11:56:01;100473.84;;;16.49;100.00
64340;BME280;63709;53.258;-8.814;2024-02-14T11:58:27;100476.56;;;16.57;100.00
64340;BME280;63709;53.258;-8.814;2024-02-14T12:00:52;100484.38;;;16.68;100.00
64340;BME280;63709;53.258;-8.814;2024-02-14T12:03:19;100474.50;;;16.77;100.00
64340;BME280;63709;53.258;-8.814;2024-02-14T12:05:46;100477.16;;;16.69;100.00
64340;BME280;63709;53.258;-8.814;2024-02-14T12:08:12;100483.44;;;16.78;100.00
64340;BME280;63709;53.258;-8.814;2024-02-14T12:10:38;100484.78;;;16.74;100.00
64340;BME280;63709;53.258;-8.814;2024-02-14T12:13:07;100482.38;;;16.70;100.00
64340;BME280;63709;53.258;-8.814;2024-02-14T12:15:36;100476.69;;;16.74;100.00
64340;BME280;63709;53.258;-8.814;2024-02-14T12:18:02;100481.09;;;16.83;100.00
64340;BME280;63709;53.258;-8.814;2024-02-14T12:20:28;100487.31;;;16.83;100.00
64340;BME280;63709;53.258;-8.814;2024-02-14T12:22:53;100486.31;;;16.84;100.00